Airfield :
LOGIN :

Register | Disclaimer

   EN    FR    IT 

 










Legend :    VFR   Marginal VFR   IFR   Intensive IFR   Very Intensive IFR
Visi :
Ceiling :
>= 8 km
>= 3000ft
5 to 8 km
1000 to 3000 ft
1500m to 5 km
500 to 1000 ft
800 to 1500m
200 to 500 ft
< 800m
< 200 ft
Symbols :   Thunderstorms  Fog  Heavy snow  Heavy precipitations  Wind > 20 kt
SIGMETs :     Misc.  Thunderstorms  Icing  Turbulence  Mountain Waves  Volcanic Ashes






- Airport Elevation : 17 ft
- IATA code : MHQ


EFMA - Mariehamn

CURRENT METAR :
  • 251550Z 17016KT 9999 BKN005 OVC042 11/10 Q1004

EXPIRED METARs :
  • 251520Z 17017KT 9999 BKN005 OVC043 11/10 Q1004
  • 251450Z 17016KT 9999 FEW005 OVC032 11/10 Q1004
  • 251420Z 17017KT 9999 SCT006 OVC036 11/10 Q1004
  • 251350Z 17018KT 9999 -SHRA BKN006 OVC028 11/10 Q1004
  • 251320Z 17018KT 9999 OVC006 11/10 Q1004

TAF TAF EFMA
Valid from the 25 at 15:00 until the 26 at 00:00 UTC


251438Z 2515/2524 16014KT 9999 SCT007 BKN015
TEMPO 2515/2521 17015G25KT 7000 BKN007



MET'MAP, your aeronautical weather chart ! - Copyright ORBIFLY December 2007 - Disclaimer

ORBIFLY MET'MAP TEAM :

Programming & Development : Alexandra Zaïnal
Concept & original design : Baudouin d'Aumeries
Assistance for programming : Marc-Olivier Méhu
Technical & hardware support : Manuel Goepfert

Contact : metmap@orbifly.com




SOURCES & CREDITS :

   NOAA